Time;durP1;ratioP1;P1;durP2;ratioP2;P2;SDS_P1;SDS_P2;PMS_P1;PMS_P2;Temp;Humidity;BMP_temperature;BMP_pressure;BME280_temperature;BME280_humidity;BME280_pressure;Samples;Min_cycle;Max_cycle;Signal;HPM_P1;HPM_P2
2021/06/02 00:02:07;;;;;;;14.15;10.75;;;21.60;64.90;;;;;;5074268;28;20511;-60
2021/06/02 00:04:46;;;;;;;13.38;9.48;;;21.60;64.90;;;;;;5074333;28;20058;-60
2021/06/02 00:07:17;;;;;;;11.77;9.15;;;21.60;64.80;;;;;;5074248;28;20054;-60
2021/06/02 00:09:42;;;;;;;11.70;9.68;;;21.60;64.60;;;;;;5074303;28;20477;-60
2021/06/02 00:12:11;;;;;;;11.77;7.90;;;21.60;64.60;;;;;;5073950;28;20035;-60
2021/06/02 00:14:37;;;;;;;11.15;8.55;;;21.60;64.50;;;;;;5073808;28;20032;-60
2021/06/02 00:17:04;;;;;;;9.35;7.75;;;21.60;64.40;;;;;;5073824;28;20042;-60
2021/06/02 00:19:30;;;;;;;9.88;7.35;;;21.60;64.40;;;;;;5073394;28;20065;-59
2021/06/02 00:21:59;;;;;;;10.43;7.65;;;21.60;64.30;;;;;;5073778;28;20052;-60
2021/06/02 00:24:26;;;;;;;9.75;7.03;;;21.60;64.20;;;;;;5073802;28;20117;-60
2021/06/02 00:26:58;;;;;;;9.65;7.03;;;21.60;64.20;;;;;;5073629;28;20508;-60
2021/06/02 00:29:35;;;;;;;9.05;8.00;;;21.60;64.20;;;;;;5074009;28;20071;-60
2021/06/02 00:32:03;;;;;;;10.93;7.70;;;21.60;64.50;;;;;;5073589;28;20035;-59
2021/06/02 00:34:29;;;;;;;8.60;7.32;;;21.60;65.00;;;;;;5073773;28;20461;-60
2021/06/02 00:37:00;;;;;;;9.95;7.50;;;21.60;65.60;;;;;;5073411;28;20032;-60
2021/06/02 00:39:26;;;;;;;10.20;7.68;;;21.50;66.00;;;;;;5073046;28;20089;-60
2021/06/02 00:41:53;;;;;;;7.50;6.70;;;21.60;66.40;;;;;;5073143;28;20456;-59
2021/06/02 00:44:20;;;;;;;7.97;6.68;;;21.50;66.20;;;;;;5073525;28;20024;-59
2021/06/02 00:46:47;;;;;;;8.90;6.93;;;21.60;66.20;;;;;;5073136;28;20032;-60
2021/06/02 00:49:24;;;;;;;9.27;6.78;;;21.60;66.10;;;;;;5073431;28;20063;-60
2021/06/02 00:51:57;;;;;;;7.15;6.03;;;21.60;66.10;;;;;;5073394;28;20029;-59
2021/06/02 00:54:24;;;;;;;7.70;5.75;;;21.50;66.10;;;;;;5073336;28;20484;-60
2021/06/02 00:56:52;;;;;;;8.57;5.78;;;21.50;66.10;;;;;;5073099;28;20050;-60
2021/06/02 00:59:22;;;;;;;7.00;5.82;;;21.60;66.30;;;;;;5072938;28;20078;-60
2021/06/02 01:01:49;;;;;;;7.63;5.45;;;21.50;66.30;;;;;;5073396;28;20055;-60
2021/06/02 01:04:15;;;;;;;6.43;5.40;;;21.50;66.40;;;;;;5072643;28;20090;-60
2021/06/02 01:06:44;;;;;;;7.32;5.35;;;21.50;66.60;;;;;;5072889;28;20041;-60
2021/06/02 01:09:10;;;;;;;6.43;5.22;;;21.50;66.60;;;;;;5072881;28;20037;-59
2021/06/02 01:11:37;;;;;;;6.70;5.60;;;21.50;66.70;;;;;;5072976;28;20051;-63
2021/06/02 01:14:04;;;;;;;7.60;5.45;;;21.50;66.80;;;;;;5072741;28;20032;-59
2021/06/02 01:16:34;;;;;;;7.70;5.25;;;21.40;66.80;;;;;;5072585;28;20036;-59
2021/06/02 01:19:01;;;;;;;6.55;4.97;;;21.50;67.00;;;;;;5072514;28;20028;-60
2021/06/02 01:21:29;;;;;;;6.22;5.57;;;21.50;66.90;;;;;;5072697;28;20108;-60
2021/06/02 01:23:59;;;;;;;5.70;5.10;;;21.50;67.60;;;;;;5072607;28;20050;-60
2021/06/02 01:26:26;;;;;;;6.55;5.55;;;21.40;66.90;;;;;;5072744;28;20512;-59
2021/06/02 01:28:53;;;;;;;6.38;5.68;;;21.50;66.90;;;;;;5072524;28;20047;-60
2021/06/02 01:31:57;;;;;;;6.78;4.93;;;21.40;66.90;;;;;;5072520;28;20429;-60
2021/06/02 01:34:25;;;;;;;6.85;5.45;;;21.40;66.90;;;;;;5063850;28;20028;-60
2021/06/02 01:37:29;;;;;;;5.07;4.53;;;21.50;67.00;;;;;;5072562;28;20025;-60
2021/06/02 01:40:33;;;;;;;10.20;4.82;;;21.40;67.10;;;;;;5071747;28;20527;-60
2021/06/02 01:43:46;;;;;;;5.80;5.15;;;21.40;67.10;;;;;;5072654;28;20070;-60
2021/06/02 01:46:41;;;;;;;5.90;4.82;;;21.40;67.30;;;;;;5071856;28;20164;-61
2021/06/02 01:49:34;;;;;;;5.20;4.50;;;21.40;67.30;;;;;;5072884;28;20127;-60
2021/06/02 01:52:30;;;;;;;7.53;4.50;;;21.40;67.40;;;;;;5072093;28;20028;-60
2021/06/02 01:55:14;;;;;;;6.30;5.43;;;21.40;67.40;;;;;;5072425;28;20054;-59
2021/06/02 01:57:45;;;;;;;6.95;5.45;;;21.40;67.40;;;;;;5072218;28;20052;-60
2021/06/02 02:00:33;;;;;;;6.05;5.43;;;21.40;67.40;;;;;;5072257;28;20028;-60
2021/06/02 02:03:19;;;;;;;5.97;5.10;;;21.40;67.40;;;;;;5071979;28;20025;-60
2021/06/02 02:06:03;;;;;;;5.38;4.43;;;21.40;67.40;;;;;;5072281;28;20103;-60
2021/06/02 02:08:50;;;;;;;6.95;5.45;;;21.40;67.50;;;;;;5072403;28;20032;-60
2021/06/02 02:11:42;;;;;;;7.20;5.53;;;21.40;67.50;;;;;;5071757;28;20327;-60
2021/06/02 02:14:44;;;;;;;5.63;4.90;;;21.40;67.60;;;;;;5072378;28;20031;-60
2021/06/02 02:17:36;;;;;;;8.88;5.15;;;21.40;67.50;;;;;;5071755;28;20529;-60
2021/06/02 02:20:23;;;;;;;6.18;4.75;;;21.40;67.60;;;;;;5063562;28;20103;-60
2021/06/02 02:23:04;;;;;;;5.20;4.70;;;21.40;67.70;;;;;;5071896;28;20535;-60
2021/06/02 02:25:46;;;;;;;;;;;21.40;67.90;;;;;;5072382;28;20090;-60
2021/06/02 02:28:23;;;;;;;7.00;4.95;;;21.40;68.00;;;;;;5072056;28;19966;-63
2021/06/02 02:30:57;;;;;;;6.00;5.05;;;21.40;68.00;;;;;;5071859;28;20039;-60
2021/06/02 02:33:28;;;;;;;7.07;5.43;;;21.40;68.00;;;;;;5070761;28;20363;-61
2021/06/02 02:36:14;;;;;;;6.10;5.50;;;21.40;68.00;;;;;;5071290;28;20016;-60
2021/06/02 02:39:22;;;;;;;5.93;5.03;;;21.40;68.10;;;;;;5071733;28;20044;-60
2021/06/02 02:42:10;;;;;;;7.03;5.43;;;21.40;68.10;;;;;;5069663;28;20050;-61
2021/06/02 02:44:44;;;;;;;9.57;5.63;;;21.40;68.20;;;;;;5075466;28;20063;-60
2021/06/02 02:47:27;;;;;;;6.57;5.25;;;21.40;68.20;;;;;;5075957;28;20037;-60
2021/06/02 02:50:01;;;;;;;7.38;5.88;;;21.40;68.30;;;;;;5075251;28;20065;-60
2021/06/02 02:52:52;;;;;;;6.90;5.38;;;21.40;68.30;;;;;;5074457;28;20024;-60
2021/06/02 02:55:19;;;;;;;;;;;21.40;68.40;;;;;;5075682;28;20053;-60
2021/06/02 02:58:13;;;;;;;5.80;5.10;;;21.40;68.50;;;;;;5075366;28;20002;-60
2021/06/02 03:00:50;;;;;;;6.25;5.03;;;21.40;68.50;;;;;;5075317;28;20090;-60
2021/06/02 03:03:38;;;;;;;6.47;5.30;;;21.40;68.50;;;;;;5075543;28;20035;-61
2021/06/02 03:06:20;;;;;;;5.95;5.38;;;21.40;68.60;;;;;;5075586;28;20036;-60
2021/06/02 03:09:04;;;;;;;6.80;5.63;;;21.40;68.70;;;;;;5075406;28;20033;-60
2021/06/02 03:11:48;;;;;;;7.82;6.70;;;21.30;68.80;;;;;;5075225;28;20045;-60
2021/06/02 03:14:49;;;;;;;6.78;6.13;;;21.30;68.90;;;;;;5075037;28;20488;-68
2021/06/02 03:17:32;;;;;;;6.97;6.28;;;21.30;69.10;;;;;;5063142;28;20048;-66
2021/06/02 03:20:14;;;;;;;7.97;6.97;;;21.30;69.30;;;;;;5075215;28;20032;-60
2021/06/02 03:23:03;;;;;;;8.02;7.15;;;21.30;69.50;;;;;;5075641;28;20062;-60
2021/06/02 03:25:37;;;;;;;7.68;6.97;;;21.30;69.70;;;;;;5074321;28;20086;-60
2021/06/02 03:28:13;;;;;;;8.30;7.50;;;21.30;69.90;;;;;;5074933;28;20501;-60
2021/06/02 03:31:17;;;;;;;9.05;6.95;;;21.30;70.10;;;;;;5074586;28;20039;-60
2021/06/02 03:34:14;;;;;;;8.20;7.28;;;21.30;70.30;;;;;;5052804;28;20031;-60
2021/06/02 03:36:52;;;;;;;8.65;7.78;;;21.30;70.50;;;;;;5052372;28;20044;-60
2021/06/02 03:39:59;;;;;;;8.93;8.10;;;21.20;70.50;;;;;;5069719;28;20084;-60
2021/06/02 03:42:48;;;;;;;8.85;7.47;;;21.30;70.70;;;;;;5065931;28;20040;-60
2021/06/02 03:45:27;;;;;;;8.13;7.32;;;21.30;70.90;;;;;;5074627;28;20110;-60
2021/06/02 03:48:31;;;;;;;8.30;7.20;;;21.30;71.00;;;;;;5074464;28;20039;-60
2021/06/02 03:51:19;;;;;;;10.30;7.68;;;21.20;71.00;;;;;;5052256;28;20035;-60
2021/06/02 03:53:50;;;;;;;8.48;7.60;;;21.20;70.90;;;;;;5072652;28;20049;-60
2021/06/02 03:56:37;;;;;;;10.10;8.60;;;21.30;71.00;;;;;;5074588;28;20130;-60
2021/06/02 03:59:40;;;;;;;9.10;8.13;;;21.30;71.00;;;;;;5074333;28;20149;-60
2021/06/02 04:02:17;;;;;;;9.95;8.95;;;21.20;71.00;;;;;;5074377;28;20086;-61
2021/06/02 04:05:23;;;;;;;9.60;8.60;;;21.30;71.00;;;;;;5074346;28;20145;-60
2021/06/02 04:08:09;;;;;;;8.88;7.97;;;21.30;70.90;;;;;;5073936;28;20050;-61
2021/06/02 04:10:45;;;;;;;9.82;8.75;;;21.30;70.80;;;;;;5074223;28;20020;-60
2021/06/02 04:13:50;;;;;;;9.88;8.88;;;21.20;70.70;;;;;;5074115;28;20515;-60
2021/06/02 04:16:22;;;;;;;11.73;9.15;;;21.30;70.70;;;;;;5073552;28;20097;-60
2021/06/02 04:18:49;;;;;;;10.20;9.02;;;21.30;70.60;;;;;;5074036;28;20025;-60
2021/06/02 04:21:18;;;;;;;9.32;8.43;;;21.20;70.50;;;;;;5074209;28;20035;-60
2021/06/02 04:23:45;;;;;;;9.68;8.75;;;21.20;70.40;;;;;;5073835;28;20037;-60
2021/06/02 04:26:12;;;;;;;9.90;8.90;;;21.20;70.30;;;;;;5073859;28;20050;-60
2021/06/02 04:28:38;;;;;;;10.30;9.30;;;21.20;70.30;;;;;;5073581;28;20488;-60
2021/06/02 04:31:07;;;;;;;10.52;9.43;;;21.20;70.10;;;;;;5073505;28;20028;-60
2021/06/02 04:33:35;;;;;;;11.00;10.00;;;21.30;70.10;;;;;;5073517;28;20042;-60
2021/06/02 04:36:05;;;;;;;10.40;9.40;;;21.30;69.90;;;;;;5073830;28;20028;-60
2021/06/02 04:38:31;;;;;;;9.75;8.80;;;21.20;69.80;;;;;;5073606;28;20093;-61
2021/06/02 04:41:06;;;;;;;9.85;8.85;;;21.20;69.60;;;;;;5073259;28;20036;-60
2021/06/02 04:43:34;;;;;;;10.00;8.88;;;21.20;69.40;;;;;;5073081;28;20038;-60
2021/06/02 04:46:02;;;;;;;9.68;8.40;;;21.20;69.10;;;;;;5073192;28;20063;-60
2021/06/02 04:48:29;;;;;;;9.32;8.43;;;21.20;68.90;;;;;;5073189;28;20544;-60
2021/06/02 04:51:32;;;;;;;9.98;9.07;;;21.20;68.70;;;;;;5073288;28;20031;-60
2021/06/02 04:54:12;;;;;;;8.48;7.68;;;21.20;68.50;;;;;;5073162;28;20028;-60
2021/06/02 04:57:15;;;;;;;8.27;7.55;;;21.20;68.40;;;;;;5073087;28;20042;-63
2021/06/02 05:00:02;;;;;;;8.65;6.93;;;21.20;68.10;;;;;;5050677;28;20143;-62
2021/06/02 05:03:21;;;;;;;8.60;7.70;;;21.20;68.00;;;;;;5070110;28;20050;-60
2021/06/02 05:06:25;;;;;;;7.93;7.13;;;21.20;67.70;;;;;;5072306;28;20520;-60
2021/06/02 05:09:17;;;;;;;8.02;7.22;;;21.20;67.30;;;;;;5073142;28;20073;-60
2021/06/02 05:12:14;;;;;;;9.02;6.72;;;21.20;67.20;;;;;;5072606;28;20036;-60
2021/06/02 05:14:51;;;;;;;6.82;6.15;;;21.20;67.10;;;;;;5072201;28;20086;-60
2021/06/02 05:17:32;;;;;;;7.63;6.45;;;21.20;66.90;;;;;;5071926;28;20078;-60
2021/06/02 05:20:22;;;;;;;7.68;6.10;;;21.20;66.70;;;;;;5072587;28;20037;-60
2021/06/02 05:23:27;;;;;;;7.40;5.65;;;21.20;66.60;;;;;;5072258;28;20396;-60
2021/06/02 05:25:59;;;;;;;7.07;6.35;;;21.20;66.60;;;;;;5072567;28;20036;-59
2021/06/02 05:28:52;;;;;;;7.40;6.00;;;21.20;66.50;;;;;;5072307;28;20092;-60
2021/06/02 05:31:33;;;;;;;6.20;5.60;;;21.20;66.30;;;;;;5071841;28;20037;-63
2021/06/02 05:34:14;;;;;;;6.13;5.53;;;21.20;66.00;;;;;;5072575;28;20491;-60
2021/06/02 05:37:27;;;;;;;6.38;5.28;;;21.20;65.80;;;;;;5072095;28;20044;-60
2021/06/02 05:40:21;;;;;;;6.50;5.68;;;21.20;65.30;;;;;;5049605;28;20057;-60
2021/06/02 05:43:24;;;;;;;6.43;5.50;;;21.20;64.80;;;;;;5077063;28;20401;-60
2021/06/02 05:46:22;;;;;;;5.80;5.20;;;21.20;64.60;;;;;;5072206;28;20423;-60
2021/06/02 05:49:01;;;;;;;7.63;5.65;;;21.20;64.50;;;;;;5067916;28;20405;-60
2021/06/02 05:51:43;;;;;;;7.15;5.22;;;21.20;64.40;;;;;;5072137;28;20077;-60
2021/06/02 05:54:15;;;;;;;5.75;5.05;;;21.20;64.40;;;;;;5071898;28;20074;-60
2021/06/02 05:57:11;;;;;;;7.20;5.72;;;21.20;64.30;;;;;;5071943;28;20235;-60
2021/06/02 06:00:25;;;;;;;5.50;4.85;;;21.20;64.20;;;;;;5072079;28;20028;-59
2021/06/02 06:03:15;;;;;;;6.82;5.35;;;21.20;64.00;;;;;;5062089;28;20051;-60
2021/06/02 06:06:12;;;;;;;6.00;5.22;;;21.20;63.80;;;;;;5071990;28;20059;-60
2021/06/02 06:09:04;;;;;;;5.97;5.32;;;21.10;63.60;;;;;;5071523;28;20028;-61
2021/06/02 06:11:55;;;;;;;7.68;5.40;;;21.10;63.50;;;;;;5070658;28;20078;-60
2021/06/02 06:14:58;;;;;;;5.72;5.00;;;21.10;63.40;;;;;;5071529;28;20516;-60
2021/06/02 06:17:51;;;;;;;6.00;4.95;;;21.20;63.30;;;;;;5074108;28;20065;-60
2021/06/02 06:20:32;;;;;;;5.82;4.68;;;21.10;63.10;;;;;;5075575;28;20083;-60
2021/06/02 06:23:16;;;;;;;;;;;21.10;63.10;;;;;;5076093;28;20042;-68
2021/06/02 06:26:14;;;;;;;5.97;4.75;;;21.10;63.00;;;;;;5075368;28;19942;-61
2021/06/02 06:29:02;;;;;;;7.00;5.28;;;21.20;63.10;;;;;;5071172;28;20142;-60
2021/06/02 06:31:31;;;;;;;5.40;4.53;;;21.20;63.10;;;;;;5075472;28;20039;-60
2021/06/02 06:34:03;;;;;;;7.50;6.18;;;21.20;63.00;;;;;;5075332;28;20443;-60
2021/06/02 06:36:30;;;;;;;5.13;4.40;;;21.20;62.90;;;;;;5075277;28;20044;-65
2021/06/02 06:39:15;;;;;;;7.18;5.97;;;21.20;62.80;;;;;;5075467;28;20114;-60
2021/06/02 06:41:42;;;;;;;6.78;5.72;;;21.20;62.70;;;;;;5075423;28;20036;-65
2021/06/02 06:44:11;;;;;;;6.90;5.53;;;21.10;62.60;;;;;;5075115;28;20378;-60
2021/06/02 06:46:38;;;;;;;6.88;5.65;;;21.10;62.70;;;;;;5073510;28;20039;-62
2021/06/02 06:49:05;;;;;;;7.85;5.03;;;21.10;62.70;;;;;;5075554;28;20149;-60
2021/06/02 06:51:33;;;;;;;8.77;5.72;;;21.20;62.70;;;;;;5075072;28;20029;-61
2021/06/02 06:54:00;;;;;;;7.82;5.40;;;21.20;62.80;;;;;;5075250;28;20036;-60
2021/06/02 06:56:28;;;;;;;8.93;5.97;;;21.20;63.80;;;;;;5075195;28;20108;-64
2021/06/02 06:58:55;;;;;;;53.35;33.63;;;21.10;63.00;;;;;;5074911;28;20055;-66
2021/06/02 07:01:21;;;;;;;139.15;84.40;;;21.10;63.80;;;;;;5074606;28;20033;-59
2021/06/02 07:03:47;;;;;;;157.70;97.65;;;21.10;64.10;;;;;;5074948;28;20112;-60
2021/06/02 07:06:14;;;;;;;150.82;97.30;;;21.10;64.00;;;;;;5074798;28;20097;-60
2021/06/02 07:08:44;;;;;;;192.57;125.60;;;21.10;63.90;;;;;;5075011;28;20316;-59
2021/06/02 07:11:13;;;;;;;173.07;121.20;;;21.10;64.00;;;;;;5074862;28;20051;-62
2021/06/02 07:13:41;;;;;;;108.50;76.13;;;21.10;63.90;;;;;;5074712;28;20043;-61
2021/06/02 07:16:10;;;;;;;106.55;73.03;;;21.00;63.60;;;;;;5074677;28;20382;-62
2021/06/02 07:18:38;;;;;;;67.78;51.13;;;21.00;63.60;;;;;;5074699;28;20392;-61
2021/06/02 07:21:04;;;;;;;55.42;40.35;;;21.00;63.40;;;;;;5074448;28;20050;-59
2021/06/02 07:23:32;;;;;;;46.47;31.52;;;20.90;63.20;;;;;;5074808;28;20042;-58
2021/06/02 07:25:58;;;;;;;38.90;29.40;;;20.80;63.10;;;;;;5074449;28;20541;-62
2021/06/02 07:28:36;;;;;;;50.67;26.40;;;20.80;63.40;;;;;;5073139;28;20040;-60
2021/06/02 07:31:02;;;;;;;32.03;22.42;;;20.90;63.70;;;;;;5074359;28;20396;-60
2021/06/02 07:33:28;;;;;;;30.95;19.98;;;20.80;63.60;;;;;;5074497;28;20313;-61
2021/06/02 07:35:53;;;;;;;20.02;15.75;;;20.80;63.80;;;;;;5074569;28;20474;-60
2021/06/02 07:38:19;;;;;;;18.75;14.57;;;20.80;63.70;;;;;;5074022;28;20088;-61
2021/06/02 07:40:45;;;;;;;19.65;14.98;;;20.70;63.70;;;;;;5074318;28;20488;-61
2021/06/02 07:43:11;;;;;;;16.80;13.07;;;20.70;63.70;;;;;;5074295;28;20040;-61
2021/06/02 07:45:36;;;;;;;18.17;12.23;;;20.80;63.80;;;;;;5074400;28;20050;-61
2021/06/02 07:48:02;;;;;;;14.43;11.57;;;20.70;63.80;;;;;;5074057;28;20467;-61
2021/06/02 07:50:28;;;;;;;14.43;11.30;;;20.60;64.10;;;;;;5074403;28;20091;-61
2021/06/02 07:52:53;;;;;;;15.00;11.50;;;20.60;64.20;;;;;;5074014;28;20043;-61
2021/06/02 07:55:19;;;;;;;11.95;10.75;;;20.50;64.00;;;;;;5073913;28;20048;-61
2021/06/02 07:57:45;;;;;;;16.88;11.27;;;20.50;64.20;;;;;;5074049;28;20474;-61
2021/06/02 08:00:11;;;;;;;13.77;10.07;;;20.50;64.30;;;;;;5074388;28;20037;-61
2021/06/02 08:02:37;;;;;;;11.35;10.15;;;20.50;64.60;;;;;;5073977;28;20493;-62
2021/06/02 08:05:04;;;;;;;11.82;9.73;;;20.60;64.60;;;;;;5074250;28;20056;-61
2021/06/02 08:07:30;;;;;;;12.05;9.32;;;20.60;64.70;;;;;;5074017;28;20053;-60
2021/06/02 08:09:55;;;;;;;12.70;9.73;;;20.70;64.40;;;;;;5072321;28;20039;-59
2021/06/02 08:12:21;;;;;;;11.95;8.02;;;20.80;64.20;;;;;;5074083;28;20062;-61
2021/06/02 08:14:47;;;;;;;10.70;8.90;;;20.90;64.10;;;;;;5072175;28;20043;-61
2021/06/02 08:17:12;;;;;;;9.10;8.15;;;21.00;63.70;;;;;;5073730;28;20035;-61
2021/06/02 08:19:38;;;;;;;13.35;7.70;;;21.00;63.50;;;;;;5073473;28;20035;-61
2021/06/02 08:22:05;;;;;;;8.45;6.60;;;21.00;63.20;;;;;;5073636;28;20041;-61
2021/06/02 08:24:37;;;;;;;9.07;6.82;;;21.10;63.10;;;;;;5073060;28;20489;-61
2021/06/02 08:27:03;;;;;;;12.45;7.75;;;21.10;63.00;;;;;;5073816;28;20037;-61
2021/06/02 08:29:28;;;;;;;9.70;7.00;;;21.10;63.00;;;;;;5071989;28;20067;-61
2021/06/02 08:31:54;;;;;;;8.10;6.38;;;21.10;62.90;;;;;;5073374;28;20066;-61
2021/06/02 08:34:20;;;;;;;11.52;9.48;;;21.10;62.80;;;;;;5073176;28;20067;-61
2021/06/02 08:36:45;;;;;;;9.38;6.60;;;21.10;62.80;;;;;;5072916;28;20083;-61
2021/06/02 08:39:11;;;;;;;8.10;6.15;;;21.20;62.80;;;;;;5071930;28;20110;-61
2021/06/02 08:41:40;;;;;;;7.75;6.20;;;21.20;62.80;;;;;;5073296;28;20035;-60
2021/06/02 08:44:07;;;;;;;8.52;6.03;;;21.20;62.80;;;;;;5073454;28;20035;-61
2021/06/02 08:46:34;;;;;;;8.27;6.47;;;21.20;62.90;;;;;;5071777;28;20070;-61
2021/06/02 08:49:00;;;;;;;9.60;6.35;;;21.20;62.90;;;;;;5072987;28;20081;-61
2021/06/02 08:51:26;;;;;;;9.45;6.03;;;21.20;62.90;;;;;;5072583;28;20027;-61
2021/06/02 08:53:51;;;;;;;7.68;6.35;;;21.20;62.90;;;;;;5073048;28;20051;-61
2021/06/02 08:56:19;;;;;;;7.30;5.88;;;21.20;63.00;;;;;;5072605;28;20042;-60
2021/06/02 08:58:45;;;;;;;7.18;6.35;;;21.20;63.00;;;;;;5072941;28;20117;-61
2021/06/02 09:01:10;;;;;;;6.20;4.95;;;21.20;63.00;;;;;;5072415;28;20238;-60
2021/06/02 09:03:36;;;;;;;11.80;6.10;;;21.20;63.00;;;;;;5072864;28;20587;-61
2021/06/02 09:06:06;;;;;;;9.95;6.35;;;21.20;63.40;;;;;;5072491;28;20069;-61
2021/06/02 09:08:33;;;;;;;18.63;8.18;;;21.20;63.20;;;;;;5072421;28;20134;-59
2021/06/02 09:11:13;;;;;;;22.42;10.77;;;21.20;64.20;;;;;;5072733;28;20075;-58
2021/06/02 09:13:39;;;;;;;18.80;7.82;;;21.20;63.70;;;;;;5072526;28;20055;-60
2021/06/02 09:16:17;;;;;;;19.42;9.18;;;21.20;63.30;;;;;;5072612;28;20491;-63
2021/06/02 09:18:47;;;;;;;14.15;8.68;;;21.20;63.00;;;;;;5072232;28;20025;-60
2021/06/02 09:21:13;;;;;;;;;;;21.20;63.10;;;;;;5073022;28;20043;-61
2021/06/02 09:23:41;;;;;;;13.80;9.27;;;21.20;63.10;;;;;;5072501;28;19908;-61
2021/06/02 09:26:15;;;;;;;11.63;10.00;;;21.20;63.10;;;;;;5072426;28;20108;-61
2021/06/02 09:28:56;;;;;;;18.60;9.88;;;21.10;63.00;;;;;;5072066;28;20093;-61
2021/06/02 09:31:58;;;;;;;14.20;10.32;;;21.20;63.20;;;;;;5071997;28;20039;-61
2021/06/02 09:34:26;;;;;;;15.82;9.77;;;21.10;62.70;;;;;;5069658;28;20630;-61
2021/06/02 09:36:54;;;;;;;10.60;8.88;;;21.10;62.50;;;;;;5066481;28;20058;-61
2021/06/02 09:39:21;;;;;;;11.82;9.40;;;21.10;62.30;;;;;;5071679;28;20119;-61
2021/06/02 09:41:49;;;;;;;14.75;9.40;;;21.10;62.20;;;;;;5071820;28;20021;-61
2021/06/02 09:44:29;;;;;;;10.02;8.68;;;21.10;61.90;;;;;;5071933;28;20066;-61
2021/06/02 09:47:13;;;;;;;19.33;8.70;;;21.10;62.00;;;;;;5072079;28;20531;-60
2021/06/02 09:49:46;;;;;;;17.58;10.45;;;21.10;62.10;;;;;;5071965;28;20039;-60
2021/06/02 09:52:12;;;;;;;15.40;12.45;;;21.10;61.70;;;;;;5071738;28;20431;-65
2021/06/02 09:54:38;;;;;;;15.82;12.25;;;21.10;61.40;;;;;;5054118;28;20053;-60
2021/06/02 09:57:15;;;;;;;17.95;12.30;;;21.00;61.60;;;;;;5071721;28;20452;-60
2021/06/02 10:00:00;;;;;;;18.25;12.05;;;21.00;61.80;;;;;;5071755;28;20107;-60
2021/06/02 10:02:27;;;;;;;13.30;11.30;;;21.10;61.50;;;;;;5071760;28;20438;-61
2021/06/02 10:05:00;;;;;;;14.75;11.07;;;21.00;60.90;;;;;;5071344;28;20376;-59
2021/06/02 10:07:26;;;;;;;14.25;10.52;;;21.00;61.10;;;;;;5071848;28;20040;-58
2021/06/02 10:09:52;;;;;;;14.70;9.43;;;21.10;61.30;;;;;;5071728;28;20025;-60
2021/06/02 10:12:18;;;;;;;17.60;11.48;;;21.10;61.10;;;;;;5071865;28;20035;-58
2021/06/02 10:14:55;;;;;;;15.32;10.27;;;21.10;61.20;;;;;;5071623;28;20043;-64
2021/06/02 10:17:29;;;;;;;19.63;11.35;;;21.10;61.30;;;;;;5071474;28;20037;-58
2021/06/02 10:19:55;;;;;;;15.20;10.60;;;21.10;61.10;;;;;;5071588;28;20032;-60
2021/06/02 10:22:29;;;;;;;14.68;9.48;;;21.00;61.40;;;;;;5071613;28;20047;-60
2021/06/02 10:25:00;;;;;;;17.65;11.70;;;21.00;61.10;;;;;;5071279;28;20063;-60
2021/06/02 10:27:26;;;;;;;24.13;12.88;;;21.10;61.10;;;;;;5070357;28;20475;-58
2021/06/02 10:29:53;;;;;;;34.75;18.30;;;21.10;60.90;;;;;;5071315;28;20078;-60
2021/06/02 10:32:19;;;;;;;23.85;17.17;;;21.10;60.90;;;;;;5071774;28;20042;-60
2021/06/02 10:34:46;;;;;;;23.90;19.98;;;21.10;61.10;;;;;;5071785;28;20103;-68
2021/06/02 10:37:15;;;;;;;20.00;17.88;;;21.10;60.70;;;;;;5071699;28;20036;-60
2021/06/02 10:39:44;;;;;;;20.17;16.75;;;21.10;60.40;;;;;;5071607;28;20074;-60
2021/06/02 10:42:30;;;;;;;24.40;15.65;;;21.00;60.20;;;;;;5071210;28;20401;-59
2021/06/02 10:45:00;;;;;;;26.58;14.98;;;21.10;60.20;;;;;;5071629;28;20035;-58
2021/06/02 10:47:27;;;;;;;21.80;14.52;;;21.10;60.40;;;;;;5071362;28;20092;-59
2021/06/02 10:49:53;;;;;;;19.15;12.25;;;21.00;60.30;;;;;;5071427;28;20039;-58
2021/06/02 10:52:40;;;;;;;17.13;11.63;;;21.00;60.30;;;;;;5071228;28;20040;-60
2021/06/02 10:55:32;;;;;;;14.40;11.27;;;21.10;60.20;;;;;;5071489;28;20040;-57
2021/06/02 10:58:17;;;;;;;13.80;11.52;;;21.10;60.40;;;;;;5071047;28;20516;-59
2021/06/02 11:00:44;;;;;;;15.10;10.00;;;21.10;60.60;;;;;;5071639;28;20029;-60
2021/06/02 11:03:20;;;;;;;15.50;11.32;;;21.10;60.50;;;;;;5072917;28;20047;-60
2021/06/02 11:05:45;;;;;;;12.77;9.77;;;21.10;60.50;;;;;;5075001;28;20497;-61
2021/06/02 11:08:11;;;;;;;21.17;9.77;;;21.10;60.80;;;;;;5074621;28;20043;-61
2021/06/02 11:10:37;;;;;;;16.25;9.48;;;21.20;60.90;;;;;;5075060;28;20031;-69
2021/06/02 11:13:06;;;;;;;21.90;10.23;;;21.20;60.90;;;;;;5074668;28;20028;-62
2021/06/02 11:15:33;;;;;;;18.92;9.82;;;21.20;61.10;;;;;;5074677;28;20086;-59
2021/06/02 11:18:11;;;;;;;23.52;10.15;;;21.20;61.10;;;;;;5074723;28;20031;-62
2021/06/02 11:20:44;;;;;;;14.43;10.07;;;21.20;61.40;;;;;;5073394;28;20052;-60
2021/06/02 11:23:11;;;;;;;14.27;10.15;;;21.20;61.20;;;;;;5073139;28;20179;-62
2021/06/02 11:25:39;;;;;;;12.80;10.05;;;21.20;60.90;;;;;;5074678;28;20028;-62
2021/06/02 11:28:06;;;;;;;11.98;10.70;;;21.20;60.60;;;;;;5074373;28;20098;-63
2021/06/02 11:30:33;;;;;;;13.20;9.93;;;21.20;60.40;;;;;;5074827;28;20027;-60
2021/06/02 11:33:08;;;;;;;11.88;9.73;;;21.10;60.00;;;;;;5074446;28;20062;-60
2021/06/02 11:36:04;;;;;;;11.98;8.80;;;21.10;60.10;;;;;;5074539;28;20117;-60
2021/06/02 11:38:30;;;;;;;12.93;8.00;;;21.10;60.10;;;;;;5073433;28;20505;-59
2021/06/02 11:40:56;;;;;;;13.82;8.23;;;21.20;60.20;;;;;;5074748;28;20481;-59
2021/06/02 11:43:23;;;;;;;10.40;8.02;;;21.20;59.90;;;;;;5074290;28;20130;-60
2021/06/02 11:45:50;;;;;;;17.20;8.60;;;21.20;59.60;;;;;;5074508;28;20051;-60
2021/06/02 11:48:21;;;;;;;10.88;8.27;;;21.20;60.00;;;;;;5074286;28;20029;-60
2021/06/02 11:50:47;;;;;;;12.13;8.50;;;21.20;60.00;;;;;;5074135;28;20506;-60
2021/06/02 11:53:13;;;;;;;10.88;8.80;;;21.20;59.80;;;;;;5074012;28;20020;-59
2021/06/02 11:55:39;;;;;;;11.07;7.90;;;21.20;59.80;;;;;;5073841;28;20029;-60
2021/06/02 11:58:05;;;;;;;15.75;8.77;;;21.20;59.80;;;;;;5074135;28;20113;-62
2021/06/02 12:00:33;;;;;;;15.07;9.18;;;21.20;59.30;;;;;;5073967;28;20031;-64
2021/06/02 12:03:07;;;;;;;12.98;9.77;;;21.20;59.20;;;;;;5074159;28;20119;-61
2021/06/02 12:05:35;;;;;;;12.13;7.95;;;21.20;59.10;;;;;;5073544;28;20036;-60
2021/06/02 12:08:07;;;;;;;21.02;9.18;;;21.20;59.00;;;;;;5074088;28;20037;-62
2021/06/02 12:11:02;;;;;;;17.77;8.45;;;21.20;59.30;;;;;;5073934;28;20027;-61
2021/06/02 12:13:33;;;;;;;11.00;6.68;;;21.20;59.30;;;;;;5068598;28;20435;-60
2021/06/02 12:16:01;;;;;;;17.05;7.55;;;21.20;60.70;;;;;;5072707;28;20060;-62
2021/06/02 12:18:45;;;;;;;15.43;8.13;;;21.30;60.30;;;;;;5073675;28;20037;-63
2021/06/02 12:21:21;;;;;;;16.10;9.52;;;21.30;59.70;;;;;;5072692;28;20034;-62
2021/06/02 12:23:48;;;;;;;13.43;10.82;;;21.30;59.80;;;;;;5073651;28;20020;-62
2021/06/02 12:26:23;;;;;;;19.67;10.73;;;21.30;59.80;;;;;;5073265;28;20071;-63
2021/06/02 12:28:49;;;;;;;16.45;10.80;;;21.30;59.80;;;;;;5074035;28;20158;-60
2021/06/02 12:31:28;;;;;;;11.75;9.73;;;21.30;59.80;;;;;;5073481;28;20488;-61
2021/06/02 12:34:09;;;;;;;13.93;8.38;;;21.30;60.10;;;;;;5073596;28;20028;-64
2021/06/02 12:36:37;;;;;;;15.32;8.40;;;21.30;60.40;;;;;;5073070;28;20028;-63
2021/06/02 12:39:09;;;;;;;14.23;8.35;;;21.40;60.90;;;;;;5072896;28;20051;-63
2021/06/02 12:41:35;;;;;;;12.55;8.23;;;21.40;60.90;;;;;;5073229;28;20142;-62
2021/06/02 12:44:03;;;;;;;14.38;8.10;;;21.30;60.90;;;;;;5073158;28;20032;-62
2021/06/02 12:46:31;;;;;;;16.50;8.98;;;21.40;61.00;;;;;;5072731;28;20044;-62
2021/06/02 12:48:57;;;;;;;13.15;8.20;;;21.30;61.00;;;;;;5072535;28;20089;-62
2021/06/02 12:51:25;;;;;;;12.27;7.95;;;21.40;61.10;;;;;;5071084;28;20031;-63
2021/06/02 12:53:52;;;;;;;10.38;7.85;;;21.30;61.00;;;;;;5073168;28;20033;-63
2021/06/02 12:56:19;;;;;;;12.95;7.70;;;21.30;61.00;;;;;;5073009;28;20080;-63
2021/06/02 12:58:57;;;;;;;10.25;7.25;;;21.30;61.00;;;;;;5072965;28;20021;-63
2021/06/02 13:01:29;;;;;;;14.80;7.63;;;21.30;61.00;;;;;;5073236;28;20137;-62
2021/06/02 13:03:57;;;;;;;13.57;7.25;;;21.40;61.10;;;;;;5073354;28;20044;-63
2021/06/02 13:06:25;;;;;;;8.07;7.13;;;21.40;61.10;;;;;;5072770;28;20033;-63
2021/06/02 13:08:52;;;;;;;7.50;6.45;;;21.40;61.20;;;;;;5072987;28;20063;-63
2021/06/02 13:11:26;;;;;;;10.20;7.10;;;21.40;61.10;;;;;;5072954;28;20066;-63
2021/06/02 13:13:53;;;;;;;11.25;7.47;;;21.40;61.90;;;;;;5072685;28;20034;-63
2021/06/02 13:16:20;;;;;;;12.00;7.15;;;21.30;61.10;;;;;;5072714;28;20111;-63
2021/06/02 13:18:58;;;;;;;9.38;7.55;;;21.40;61.20;;;;;;5071097;28;20031;-62
2021/06/02 13:21:28;;;;;;;11.48;7.97;;;21.40;61.20;;;;;;5072842;28;20044;-63
2021/06/02 13:24:10;;;;;;;10.65;7.22;;;21.40;61.20;;;;;;5072703;28;20393;-63